Time;durP1;ratioP1;P1;durP2;ratioP2;P2;SDS_P1;SDS_P2;PMS_P1;PMS_P2;Temp;Humidity;BMP_temperature;BMP_pressure;BME280_temperature;BME280_humidity;BME280_pressure;Samples;Min_cycle;Max_cycle;Signal;HPM_P1;HPM_P2
2022/01/27 00:04:03;;;;;;;;;;;25.90;79.30;;;;;;5076115;28;19961;-59
2022/01/27 00:06:33;;;;;;;;;;;26.00;79.10;;;;;;5074415;28;19905;-62
2022/01/27 00:09:10;;;;;;;;;;;26.00;79.20;;;;;;5075390;28;19924;-54
2022/01/27 00:11:38;;;;;;;;;;;26.00;76.50;;;;;;5075542;28;20009;-59
2022/01/27 00:14:05;;;;;;;;;;;26.10;79.00;;;;;;5075348;28;19908;-55
2022/01/27 00:16:39;;;;;;;;;;;26.10;78.20;;;;;;5074368;28;19905;-59
2022/01/27 00:19:05;;;;;;;;;;;26.10;78.50;;;;;;5075834;28;19905;-56
2022/01/27 00:21:32;;;;;;;;;;;26.10;79.30;;;;;;5076052;28;19911;-57
2022/01/27 00:23:59;;;;;;;;;;;26.20;77.40;;;;;;5075989;28;19999;-55
2022/01/27 00:26:26;;;;;;;;;;;26.20;78.40;;;;;;5074947;28;19987;-57
2022/01/27 00:28:53;;;;;;;;;;;26.20;77.20;;;;;;5075748;28;19923;-57
2022/01/27 00:31:21;;;;;;;;;;;26.30;77.10;;;;;;5074298;28;19969;-58
2022/01/27 00:33:48;;;;;;;;;;;26.30;77.50;;;;;;5075947;28;20006;-63
2022/01/27 00:36:16;;;;;;;;;;;26.40;76.40;;;;;;5076014;28;19990;-57
2022/01/27 00:38:43;;;;;;;;;;;26.50;78.10;;;;;;5074424;28;20027;-60
2022/01/27 00:41:09;;;;;;;;;;;26.50;77.40;;;;;;5073963;28;19908;-59
2022/01/27 00:43:39;;;;;;;;;;;26.60;77.40;;;;;;5075604;28;20102;-56
2022/01/27 00:46:12;;;;;;;;;;;26.50;77.60;;;;;;5074986;28;19904;-54
2022/01/27 00:48:38;;;;;;;;;;;26.50;77.30;;;;;;5075906;28;19915;-57
2022/01/27 00:51:08;;;;;;;;;;;26.50;77.60;;;;;;5075578;28;19905;-57
2022/01/27 00:54:05;;;;;;;;;;;26.60;77.00;;;;;;5075580;28;19908;-61
2022/01/27 00:59:32;;;;;;;;;;;26.70;76.60;;;;;;5063111;28;19912;-53
2022/01/27 01:02:13;;;;;;;;;;;26.80;76.60;;;;;;5075140;28;20282;-59
2022/01/27 01:04:44;;;;;;;;;;;26.80;76.90;;;;;;5075510;28;20266;-61
2022/01/27 01:07:12;;;;;;;;;;;26.70;77.50;;;;;;5074256;28;19987;-59
2022/01/27 01:15:17;;;;;;;;;;;26.80;77.30;;;;;;5075367;28;19912;-57
2022/01/27 01:17:57;;;;;;;;;;;26.80;77.20;;;;;;5074907;28;19995;-61
2022/01/27 01:20:41;;;;;;;;;;;26.80;77.40;;;;;;5073596;28;20259;-59
2022/01/27 01:36:43;;;;;;;;;;;26.90;77.40;;;;;;5074501;28;20266;-57
2022/01/27 01:39:12;;;;;;;;;;;26.90;77.70;;;;;;5074293;28;19969;-56
2022/01/27 01:41:42;;;;;;;;;;;27.00;76.20;;;;;;5073631;28;20255;-50
2022/01/27 01:44:09;;;;;;;;;;;27.00;77.20;;;;;;5074007;28;19915;-57
2022/01/27 01:46:36;;;;;;;;;;;27.00;75.90;;;;;;5073183;28;19904;-56
2022/01/27 01:49:04;;;;;;;;;;;27.10;76.00;;;;;;5074165;28;19944;-54
2022/01/27 01:51:32;;;;;;;;;;;27.00;76.40;;;;;;5073802;28;19916;-48
2022/01/27 01:54:00;;;;;;;;;;;27.10;76.80;;;;;;5073973;28;19958;-54
2022/01/27 01:56:26;;;;;;;;;;;27.10;76.60;;;;;;5073734;28;19963;-57
2022/01/27 01:58:53;;;;;;;;;;;27.20;74.40;;;;;;5073759;28;20331;-55
2022/01/27 02:01:20;;;;;;;;;;;27.20;75.60;;;;;;5073845;28;19991;-52
2022/01/27 02:03:47;;;;;;;;;;;27.20;75.50;;;;;;5073510;28;20321;-54
2022/01/27 02:06:22;;;;;;;;;;;27.20;76.20;;;;;;5072175;28;19908;-55
2022/01/27 02:19:42;;;;;;;;;;;27.20;75.30;;;;;;5073713;28;19999;-58
2022/01/27 02:22:09;;;;;;;;;;;27.20;75.10;;;;;;5073004;28;20294;-57
2022/01/27 02:24:36;;;;;;;;;;;27.20;75.30;;;;;;5073711;28;20270;-52
2022/01/27 02:27:04;;;;;;;;;;;27.20;76.90;;;;;;5073086;28;19912;-57
2022/01/27 02:29:31;;;;;;;;;;;27.10;76.90;;;;;;5072578;28;19904;-56
2022/01/27 02:31:59;;;;;;;;;;;27.10;77.30;;;;;;5072910;28;20014;-53
2022/01/27 02:34:26;;;;;;;;;;;27.00;75.90;;;;;;5073068;28;20325;-54
2022/01/27 02:36:53;;;;;;;;;;;27.10;77.50;;;;;;5072840;28;19905;-56
2022/01/27 02:39:20;;;;;;;;;;;27.00;78.00;;;;;;5073094;28;19940;-56
2022/01/27 02:42:00;;;;;;;;;;;26.90;77.60;;;;;;5072846;28;20303;-58
2022/01/27 02:44:30;;;;;;;;;;;27.00;77.40;;;;;;5074932;28;20023;-54
2022/01/27 02:46:56;;;;;;;;;;;27.00;78.00;;;;;;5074847;28;20404;-58
2022/01/27 02:49:23;;;;;;;;;;;27.00;76.50;;;;;;5073396;28;19905;-56
2022/01/27 02:51:50;;;;;;;;;;;27.10;76.90;;;;;;5073084;28;19920;-56
2022/01/27 02:54:17;;;;;;;;;;;27.10;77.70;;;;;;5073331;28;20347;-48
2022/01/27 02:56:46;;;;;;;;;;;27.10;77.20;;;;;;5072713;28;19917;-57
2022/01/27 02:59:20;;;;;;;;;;;27.10;77.80;;;;;;5073482;28;19939;-59
2022/01/27 03:01:47;;;;;;;;;;;27.10;77.50;;;;;;5073267;28;20259;-57
2022/01/27 03:04:15;;;;;;;;;;;27.10;77.00;;;;;;5072864;28;20302;-53
2022/01/27 03:06:43;;;;;;;;;;;27.20;76.50;;;;;;5072547;28;19904;-60
2022/01/27 03:09:09;;;;;;;;;;;27.20;76.30;;;;;;5072135;28;20366;-57
2022/01/27 03:11:44;;;;;;;;;;;27.20;76.80;;;;;;5072339;28;19908;-54
2022/01/27 03:14:11;;;;;;;;;;;27.20;77.30;;;;;;5072265;28;20768;-55
2022/01/27 03:16:39;;;;;;;;;;;27.20;77.60;;;;;;5072501;28;19912;-54
2022/01/27 03:19:06;;;;;;;;;;;27.20;76.50;;;;;;5072531;28;20247;-55
2022/01/27 03:21:32;;;;;;;;;;;27.30;77.00;;;;;;5071984;28;20286;-61
2022/01/27 03:24:02;;;;;;;;;;;27.30;76.90;;;;;;5072483;28;19910;-51
2022/01/27 03:26:29;;;;;;;;;;;27.30;76.40;;;;;;5072656;28;19908;-59
2022/01/27 03:28:58;;;;;;;;;;;27.30;76.60;;;;;;5072011;28;19911;-57
2022/01/27 03:31:25;;;;;;;;;;;27.30;76.20;;;;;;5072068;28;19958;-61
2022/01/27 03:33:52;;;;;;;;;;;27.30;76.70;;;;;;5070766;28;19908;-56
2022/01/27 03:36:19;;;;;;;;;;;27.30;77.10;;;;;;5072330;28;20046;-61
2022/01/27 03:38:46;;;;;;;;;;;27.40;76.20;;;;;;5072836;28;19966;-58
2022/01/27 03:41:18;;;;;;;;;;;27.40;74.60;;;;;;5072519;28;20367;-62
2022/01/27 03:43:46;;;;;;;;;;;27.40;76.70;;;;;;5071151;28;20408;-59
2022/01/27 03:46:13;;;;;;;;;;;27.40;76.70;;;;;;5071751;28;19905;-53
2022/01/27 03:48:39;;;;;;;;;;;27.30;76.70;;;;;;5072194;28;19991;-56
2022/01/27 03:51:06;;;;;;;;;;;27.40;76.00;;;;;;5070716;28;19915;-56
2022/01/27 03:53:33;;;;;;;;;;;27.50;76.20;;;;;;5070798;28;19916;-58
2022/01/27 03:56:00;;;;;;;;;;;27.50;76.20;;;;;;5071929;28;19947;-60
2022/01/27 03:58:26;;;;;;;;;;;27.50;76.10;;;;;;5072181;28;19909;-61
2022/01/27 04:00:53;;;;;;;;;;;27.50;76.50;;;;;;5072120;28;19904;-58
2022/01/27 04:03:22;;;;;;;;;;;27.50;76.60;;;;;;5072198;28;19905;-56
2022/01/27 04:05:54;;;;;;;;;;;27.50;76.60;;;;;;5072269;28;19912;-56
2022/01/27 04:08:21;;;;;;;;;;;27.50;76.30;;;;;;5072295;28;19965;-58
2022/01/27 04:10:49;;;;;;;;;;;27.40;77.10;;;;;;5072427;28;19904;-59
2022/01/27 04:13:16;;;;;;;;;;;27.40;76.90;;;;;;5072834;28;20003;-59
2022/01/27 04:15:43;;;;;;;;;;;27.50;76.90;;;;;;5072377;28;19908;-62
2022/01/27 04:18:10;;;;;;;;;;;27.50;76.90;;;;;;5071657;28;19963;-53
2022/01/27 04:20:38;;;;;;;;;;;27.60;77.00;;;;;;5070033;28;19905;-58
2022/01/27 04:23:05;;;;;;;;;;;27.60;77.20;;;;;;5071957;28;19912;-57
2022/01/27 04:25:32;;;;;;;;;;;27.70;77.00;;;;;;5071970;28;19950;-54
2022/01/27 04:28:04;;;;;;;;;;;27.70;76.80;;;;;;5072217;28;19996;-57
2022/01/27 04:30:31;;;;;;;;;;;27.70;76.60;;;;;;5072726;28;19911;-51
2022/01/27 04:33:00;;;;;;;;;;;27.70;76.20;;;;;;5071558;28;20355;-58
2022/01/27 04:35:30;;;;;;;;;;;27.70;76.30;;;;;;5071737;28;19904;-56
2022/01/27 04:40:37;;;;;;;;;;;27.60;76.50;;;;;;5072001;28;19908;-57
2022/01/27 04:43:23;;;;;;;;;;;27.60;75.90;;;;;;5075039;28;19905;-58
2022/01/27 04:46:14;;;;;;;;;;;27.60;76.10;;;;;;5075389;28;20246;-58
2022/01/27 04:48:48;;;;;;;;;;;27.50;76.50;;;;;;5074483;28;20001;-47
2022/01/27 04:51:18;;;;;;;;;;;27.60;76.30;;;;;;5074685;28;20050;-59
2022/01/27 04:53:55;;;;;;;;;;;27.50;76.50;;;;;;5073680;28;19990;-58
2022/01/27 04:56:28;;;;;;;;;;;27.40;76.60;;;;;;5074500;28;19939;-54
2022/01/27 04:59:00;;;;;;;;;;;27.40;76.80;;;;;;5074401;28;20218;-57
2022/01/27 05:01:41;;;;;;;;;;;27.40;77.50;;;;;;5074656;28;20273;-57
2022/01/27 05:04:23;;;;;;;;;;;27.40;77.50;;;;;;5074636;28;19904;-60
2022/01/27 05:06:50;;;;;;;;;;;27.40;77.70;;;;;;5074529;28;19958;-61
2022/01/27 05:09:18;;;;;;;;;;;27.40;77.20;;;;;;5073237;28;19904;-53
2022/01/27 05:11:52;;;;;;;;;;;27.30;77.80;;;;;;5073189;28;19915;-51
2022/01/27 05:14:25;;;;;;;;;;;27.40;77.40;;;;;;5074408;28;19912;-57
2022/01/27 05:16:53;;;;;;;;;;;27.40;77.20;;;;;;5074637;28;19913;-54
2022/01/27 05:19:21;;;;;;;;;;;27.40;77.20;;;;;;5074454;28;19904;-59
2022/01/27 05:21:47;;;;;;;;;;;27.40;77.70;;;;;;5074371;28;19904;-58
2022/01/27 05:24:14;;;;;;;;;;;27.40;77.80;;;;;;5074338;28;19951;-52
2022/01/27 05:26:56;;;;;;;;;;;27.30;77.70;;;;;;5074833;28;19908;-47
2022/01/27 05:29:23;;;;;;;;;;;27.30;77.70;;;;;;5073913;28;19905;-56
2022/01/27 05:31:50;;;;;;;;;;;27.20;78.10;;;;;;5073914;28;19920;-58
2022/01/27 05:34:20;;;;;;;;;;;27.20;78.10;;;;;;5074320;28;19999;-59
2022/01/27 05:36:46;;;;;;;;;;;27.20;78.80;;;;;;5074713;28;19904;-58
2022/01/27 05:39:13;;;;;;;;;;;27.20;79.00;;;;;;5073966;28;19993;-57
2022/01/27 05:41:40;;;;;;;;;;;27.10;79.20;;;;;;5074119;28;19904;-53
2022/01/27 05:44:07;;;;;;;;;;;27.10;79.30;;;;;;5074296;28;19910;-63
2022/01/27 05:46:33;;;;;;;;;;;27.10;79.50;;;;;;5075033;28;20350;-55
2022/01/27 05:49:00;;;;;;;;;;;27.10;79.10;;;;;;5074593;28;19904;-53
2022/01/27 05:51:27;;;;;;;;;;;27.10;79.70;;;;;;5073989;28;19908;-58
2022/01/27 05:53:54;;;;;;;;;;;27.10;79.00;;;;;;5073427;28;20465;-55
2022/01/27 05:56:20;;;;;;;;;;;27.10;79.40;;;;;;5073867;28;20057;-54
2022/01/27 05:58:47;;;;;;;;;;;27.10;79.40;;;;;;5073913;28;19908;-58
2022/01/27 06:01:14;;;;;;;;;;;27.10;79.40;;;;;;5073714;28;19904;-60
2022/01/27 06:03:42;;;;;;;;;;;27.10;79.50;;;;;;5073645;28;19911;-57
2022/01/27 06:06:08;;;;;;;;;;;27.00;79.80;;;;;;5073210;28;20377;-61
2022/01/27 06:08:35;;;;;;;;;;;27.00;80.10;;;;;;5071972;28;19904;-55
2022/01/27 06:11:02;;;;;;;;;;;27.00;80.20;;;;;;5073783;28;19904;-63
2022/01/27 06:13:29;;;;;;;;;;;27.00;80.00;;;;;;5073914;28;19912;-54
2022/01/27 06:15:55;;;;;;;;;;;27.00;80.10;;;;;;5072169;28;19912;-59
2022/01/27 06:18:23;;;;;;;;;;;26.90;80.40;;;;;;5073799;28;19912;-56
2022/01/27 06:20:49;;;;;;;;;;;26.90;80.20;;;;;;5073212;28;19908;-58
2022/01/27 06:23:16;;;;;;;;;;;26.90;80.40;;;;;;5073911;28;20025;-58
2022/01/27 06:25:43;;;;;;;;;;;26.80;80.40;;;;;;5073786;28;20297;-58
2022/01/27 06:28:10;;;;;;;;;;;26.80;80.90;;;;;;5073246;28;19908;-59
2022/01/27 06:30:36;;;;;;;;;;;26.80;80.80;;;;;;5073615;28;20270;-55
2022/01/27 06:33:04;;;;;;;;;;;26.70;81.00;;;;;;5071791;28;20408;-54
2022/01/27 06:35:31;;;;;;;;;;;26.60;82.00;;;;;;5073242;28;19904;-55
2022/01/27 06:37:57;;;;;;;;;;;26.60;81.60;;;;;;5073248;28;19912;-60
2022/01/27 06:40:24;;;;;;;;;;;26.60;81.80;;;;;;5073214;28;19904;-62
2022/01/27 06:42:51;;;;;;;;;;;26.60;81.10;;;;;;5072034;28;19904;-60
2022/01/27 06:45:17;;;;;;;;;;;26.50;82.00;;;;;;5072910;28;19904;-56
2022/01/27 06:47:44;;;;;;;;;;;26.50;81.80;;;;;;5073766;28;20011;-56
2022/01/27 06:50:10;;;;;;;;;;;26.60;82.10;;;;;;5072759;28;19915;-57
2022/01/27 06:52:38;;;;;;;;;;;26.40;82.50;;;;;;5073124;28;19966;-59
2022/01/27 06:55:05;;;;;;;;;;;26.50;82.40;;;;;;5073036;28;20389;-60
2022/01/27 06:57:33;;;;;;;;;;;26.40;82.70;;;;;;5072944;28;20363;-51
2022/01/27 07:00:00;;;;;;;;;;;26.40;83.10;;;;;;5073712;28;19948;-55
2022/01/27 07:02:27;;;;;;;;;;;26.40;82.80;;;;;;5073624;28;20006;-54
2022/01/27 07:04:54;;;;;;;;;;;26.30;83.20;;;;;;5070588;28;19905;-57
2022/01/27 07:07:20;;;;;;;;;;;26.30;83.00;;;;;;5072609;28;19927;-60
2022/01/27 07:09:47;;;;;;;;;;;26.40;83.30;;;;;;5073395;28;20040;-64
2022/01/27 07:12:14;;;;;;;;;;;26.30;83.50;;;;;;5073289;28;19982;-58
2022/01/27 07:14:40;;;;;;;;;;;26.30;82.80;;;;;;5073149;28;19927;-58
2022/01/27 07:17:07;;;;;;;;;;;26.30;83.70;;;;;;5073012;28;20016;-59
2022/01/27 07:19:34;;;;;;;;;;;26.30;83.30;;;;;;5072965;28;20370;-59
2022/01/27 07:22:01;;;;;;;;;;;26.30;83.40;;;;;;5072734;28;19912;-59
2022/01/27 07:24:27;;;;;;;;;;;26.30;83.50;;;;;;5073010;28;20262;-58
2022/01/27 07:26:54;;;;;;;;;;;26.30;83.00;;;;;;5073355;28;19938;-63
2022/01/27 07:29:21;;;;;;;;;;;26.20;83.60;;;;;;5072749;28;19904;-60
2022/01/27 07:31:48;;;;;;;;;;;26.30;83.20;;;;;;5073412;28;19908;-62
2022/01/27 07:34:14;;;;;;;;;;;26.20;83.10;;;;;;5073366;28;19904;-62
2022/01/27 07:36:41;;;;;;;;;;;26.20;83.50;;;;;;5072768;28;20247;-57
2022/01/27 07:39:14;;;;;;;;;;;26.20;83.40;;;;;;5073060;28;19959;-62
2022/01/27 07:41:43;;;;;;;;;;;26.20;83.60;;;;;;5073305;28;19911;-65
2022/01/27 07:44:09;;;;;;;;;;;26.20;83.80;;;;;;5072410;28;19915;-60
2022/01/27 07:46:36;;;;;;;;;;;26.20;83.70;;;;;;5072950;28;20003;-62
2022/01/27 07:49:03;;;;;;;;;;;26.20;83.90;;;;;;5072779;28;19927;-62
2022/01/27 07:51:30;;;;;;;;;;;26.10;83.90;;;;;;5072262;28;19909;-54
2022/01/27 07:53:57;;;;;;;;;;;26.20;83.60;;;;;;5072533;28;19995;-59
2022/01/27 07:56:23;;;;;;;;;;;26.10;82.60;;;;;;5071196;28;20018;-58
2022/01/27 07:58:50;;;;;;;;;;;26.10;82.40;;;;;;5073207;28;19912;-54
2022/01/27 08:01:17;;;;;;;;;;;26.10;82.90;;;;;;5072335;28;19926;-59
2022/01/27 08:03:43;;;;;;;;;;;26.10;83.90;;;;;;5072476;28;19926;-58
2022/01/27 08:06:10;;;;;;;;;;;26.00;83.00;;;;;;5072512;28;19904;-60
2022/01/27 08:08:37;;;;;;;;;;;26.00;83.40;;;;;;5072512;28;19947;-57
2022/01/27 08:11:03;;;;;;;;;;;26.00;84.80;;;;;;5072621;28;19997;-66
2022/01/27 08:13:30;;;;;;;;;;;26.00;85.10;;;;;;5072596;28;19955;-63
2022/01/27 08:15:57;;;;;;;;;;;26.00;84.20;;;;;;5073050;28;19904;-62
2022/01/27 08:18:27;;;;;;;;;;;25.90;84.70;;;;;;5075970;28;20344;-61
2022/01/27 08:20:53;;;;;;;;;;;25.90;84.90;;;;;;5076023;28;19927;-61
2022/01/27 08:23:20;;;;;;;;;;;25.90;86.80;;;;;;5075899;28;19941;-64
2022/01/27 08:25:53;;;;;;;;;;;25.90;85.80;;;;;;5075885;28;20369;-66
2022/01/27 08:28:28;;;;;;;;;;;25.90;85.30;;;;;;5076101;28;19909;-59
2022/01/27 08:30:56;;;;;;;;;;;25.90;87.10;;;;;;5076016;28;19904;-62
2022/01/27 08:33:24;;;;;;;;;;;25.90;87.30;;;;;;5074708;28;19924;-65
2022/01/27 08:35:51;;;;;;;;;;;25.90;89.00;;;;;;5075960;28;19905;-60
2022/01/27 08:38:17;;;;;;;;;;;26.00;90.00;;;;;;5077085;28;19914;-58
2022/01/27 08:40:47;;;;;;;;;;;26.00;87.90;;;;;;5076949;28;19912;-58
2022/01/27 08:43:13;;;;;;;;;;;25.90;85.80;;;;;;5076743;28;19904;-59
2022/01/27 08:45:42;;;;;;;;;;;25.90;86.50;;;;;;5076484;28;20354;-58
2022/01/27 08:48:10;;;;;;;;;;;25.90;87.90;;;;;;5076921;28;19908;-64
2022/01/27 08:50:37;;;;;;;;;;;25.90;85.40;;;;;;5076907;28;19968;-61
2022/01/27 08:53:04;;;;;;;;;;;25.70;86.00;;;;;;5077369;28;20223;-62
2022/01/27 08:55:30;;;;;;;;;;;25.60;89.10;;;;;;5076541;28;20008;-63
2022/01/27 08:57:57;;;;;;;;;;;25.60;87.50;;;;;;5076605;28;20002;-63
2022/01/27 09:00:24;;;;;;;;;;;25.60;89.80;;;;;;5075567;28;19904;-57
2022/01/27 09:02:56;;;;;;;;;;;25.70;90.40;;;;;;5076215;28;19904;-64
2022/01/27 09:05:23;;;;;;;;;;;25.90;90.50;;;;;;5076144;28;19983;-65
2022/01/27 09:07:55;;;;;;;;;;;25.90;91.00;;;;;;5076025;28;20292;-59
2022/01/27 09:10:21;;;;;;;;;;;25.90;87.60;;;;;;5075560;28;19904;-59
2022/01/27 09:12:48;;;;;;;;;;;25.90;87.00;;;;;;5075640;28;19912;-61
2022/01/27 09:15:15;;;;;;;;;;;25.70;86.60;;;;;;5075199;28;20373;-60
2022/01/27 09:17:41;;;;;;;;;;;25.70;89.30;;;;;;5075272;28;20268;-59
2022/01/27 09:20:09;;;;;;;;;;;25.70;89.80;;;;;;5074705;28;20235;-59
2022/01/27 09:22:37;;;;;;;;;;;25.70;87.50;;;;;;5075556;28;19908;-62
2022/01/27 09:25:19;;;;;;;;;;;25.60;86.20;;;;;;5075990;28;20086;-57
2022/01/27 09:27:46;;;;;;;;;;;25.50;89.00;;;;;;5073466;28;19912;-59
2022/01/27 09:30:15;;;;;;;;;;;25.50;88.90;;;;;;5075339;28;19911;-63
2022/01/27 09:32:42;;;;;;;;;;;25.60;88.50;;;;;;5075226;28;19913;-60
2022/01/27 09:35:09;;;;;;;;;;;25.60;88.50;;;;;;5075725;28;19915;-63
2022/01/27 09:37:39;;;;;;;;;;;25.60;88.60;;;;;;5075380;28;20274;-58
2022/01/27 09:40:08;;;;;;;;;;;25.60;88.80;;;;;;5075071;28;19905;-62
2022/01/27 09:42:37;;;;;;;;;;;25.60;88.30;;;;;;5075266;28;20272;-58
2022/01/27 09:45:05;;;;;;;;;;;25.60;88.20;;;;;;5075194;28;20333;-57
2022/01/27 09:47:35;;;;;;;;;;;25.60;88.30;;;;;;5075373;28;19904;-63
2022/01/27 09:50:48;;;;;;;;;;;25.60;88.20;;;;;;5074316;28;19904;-57
2022/01/27 09:52:53;;;;;;;;;;;25.60;88.30;;;;;;5066704;28;19912;-57
2022/01/27 09:55:20;;;;;;;;;;;25.60;88.30;;;;;;5074539;28;19908;-64
2022/01/27 09:57:46;;;;;;;;;;;25.60;88.30;;;;;;5074612;28;19912;-57
2022/01/27 10:00:14;;;;;;;;;;;25.60;88.30;;;;;;5073157;28;20251;-65
2022/01/27 10:03:01;;;;;;;;;;;25.60;88.40;;;;;;5074956;28;20259;-58
2022/01/27 10:05:28;;;;;;;;;;;25.50;88.30;;;;;;5074902;28;20354;-65
2022/01/27 10:08:00;;;;;;;;;;;25.50;88.40;;;;;;5074420;28;19904;-62
2022/01/27 10:10:27;;;;;;;;;;;25.50;88.50;;;;;;5074478;28;19904;-65
2022/01/27 10:12:55;;;;;;;;;;;25.50;88.50;;;;;;5074635;28;19912;-58
2022/01/27 10:15:23;;;;;;;;;;;25.50;88.40;;;;;;5074671;28;20350;-59
2022/01/27 10:18:08;;;;;;;;;;;25.50;88.60;;;;;;5073985;28;19908;-64
2022/01/27 10:20:38;;;;;;;;;;;25.50;88.70;;;;;;5074010;28;20057;-61
2022/01/27 10:23:33;;;;;;;;;;;25.50;88.70;;;;;;5074077;28;19915;-61
2022/01/27 10:26:09;;;;;;;;;;;25.40;88.80;;;;;;5072425;28;19909;-60
2022/01/27 10:28:59;;;;;;;;;;;25.40;88.90;;;;;;5072909;28;19909;-61
2022/01/27 10:31:27;;;;;;;;;;;25.40;88.80;;;;;;5073705;28;19911;-62
2022/01/27 10:33:58;;;;;;;;;;;25.40;88.90;;;;;;5073302;28;19962;-55
2022/01/27 10:36:25;;;;;;;;;;;25.40;88.90;;;;;;5074012;28;20374;-62
2022/01/27 10:38:58;;;;;;;;;;;25.40;89.00;;;;;;5073283;28;19904;-61
2022/01/27 10:41:29;;;;;;;;;;;25.40;89.10;;;;;;5073719;28;19908;-61
2022/01/27 10:44:12;;;;;;;;;;;25.30;89.00;;;;;;5073414;28;19958;-65
2022/01/27 10:46:47;;;;;;;;;;;25.30;88.90;;;;;;5072458;28;20004;-62
2022/01/27 10:49:25;;;;;;;;;;;25.30;88.90;;;;;;5073569;28;20223;-63
2022/01/27 10:51:54;;;;;;;;;;;25.30;89.00;;;;;;5073205;28;20423;-59
2022/01/27 10:54:37;;;;;;;;;;;25.30;89.10;;;;;;5073389;28;20313;-57
2022/01/27 10:57:05;;;;;;;;;;;25.30;89.10;;;;;;5072750;28;19969;-59
2022/01/27 10:59:33;;;;;;;;;;;25.30;89.10;;;;;;5073508;28;20008;-56
2022/01/27 11:02:03;;;;;;;;;;;25.30;89.20;;;;;;5073033;28;19908;-62
2022/01/27 11:04:35;;;;;;;;;;;25.30;89.20;;;;;;5073395;28;19905;-61
2022/01/27 11:07:02;;;;;;;;;;;25.20;89.10;;;;;;5073649;28;19958;-59
2022/01/27 11:09:35;;;;;;;;;;;25.20;89.00;;;;;;5073158;28;20006;-60
2022/01/27 11:12:07;;;;;;;;;;;25.20;89.10;;;;;;5072324;28;19961;-56
2022/01/27 11:14:34;;;;;;;;;;;25.20;89.10;;;;;;5072979;28;19943;-57
2022/01/27 11:17:02;;;;;;;;;;;25.20;89.30;;;;;;5072739;28;19981;-53
2022/01/27 11:24:32;;;;;;;;;;;25.20;89.30;;;;;;5072695;28;19971;-57
2022/01/27 11:27:02;;;;;;;;;;;25.20;89.40;;;;;;5071320;28;19952;-61
2022/01/27 11:29:30;;;;;;;;;;;25.20;89.30;;;;;;5071938;28;20131;-60
2022/01/27 11:32:16;;;;;;;;;;;25.20;89.50;;;;;;5072524;28;19920;-58
2022/01/27 11:34:47;;;;;;;;;;;25.20;89.40;;;;;;5072810;28;20305;-62
2022/01/27 11:37:18;;;;;;;;;;;25.20;89.10;;;;;;5071628;28;19908;-58
2022/01/27 11:39:48;;;;;;;;;;;25.20;89.50;;;;;;5071390;28;19908;-58
2022/01/27 11:42:14;;;;;;;;;;;25.10;89.20;;;;;;5072429;28;20317;-56
2022/01/27 11:44:45;;;;;;;;;;;25.10;89.50;;;;;;5074107;28;19912;-61
2022/01/27 11:47:13;;;;;;;;;;;25.10;89.50;;;;;;5074250;28;19905;-63
2022/01/27 11:49:53;;;;;;;;;;;25.10;89.50;;;;;;5073304;28;20334;-63
2022/01/27 11:52:21;;;;;;;;;;;25.10;89.50;;;;;;5076697;28;19952;-60
2022/01/27 11:54:48;;;;;;;;;;;25.10;89.50;;;;;;5077055;28;19991;-60
2022/01/27 11:57:32;;;;;;;;;;;25.10;89.60;;;;;;5077171;28;20007;-63
2022/01/27 12:00:09;;;;;;;;;;;25.10;89.60;;;;;;5075524;28;19912;-58
2022/01/27 12:02:54;;;;;;;;;;;25.10;89.70;;;;;;5075540;28;19911;-63
2022/01/27 12:05:21;;;;;;;;;;;25.10;89.50;;;;;;5076291;28;19904;-59
2022/01/27 12:08:05;;;;;;;;;;;25.10;89.60;;;;;;5076898;28;19935;-64
2022/01/27 12:10:39;;;;;;;;;;;25.10;89.80;;;;;;5076687;28;19916;-64
2022/01/27 12:13:25;;;;;;;;;;;25.10;89.70;;;;;;5076733;28;19981;-65
2022/01/27 12:16:10;;;;;;;;;;;25.10;89.70;;;;;;5076088;28;19912;-52
2022/01/27 12:18:38;;;;;;;;;;;25.10;89.80;;;;;;5076375;28;19904;-54
2022/01/27 12:21:23;;;;;;;;;;;25.10;89.70;;;;;;5076828;28;19943;-61
2022/01/27 12:24:07;;;;;;;;;;;25.10;89.80;;;;;;5076532;28;19908;-63
2022/01/27 12:26:54;;;;;;;;;;;25.00;89.80;;;;;;5075152;28;20248;-60
2022/01/27 12:29:31;;;;;;;;;;;25.00;89.70;;;;;;5076497;28;19911;-59
2022/01/27 12:32:20;;;;;;;;;;;25.00;90.00;;;;;;5076080;28;20346;-66
2022/01/27 12:34:49;;;;;;;;;;;25.00;90.00;;;;;;5076088;28;20350;-63
2022/01/27 12:37:18;;;;;;;;;;;25.00;90.00;;;;;;5075992;28;19904;-61
2022/01/27 12:39:55;;;;;;;;;;;25.00;90.00;;;;;;5076233;28;19911;-61
2022/01/27 12:42:27;;;;;;;;;;;25.00;89.90;;;;;;5075979;28;19911;-61
2022/01/27 12:45:02;;;;;;;;;;;25.00;90.10;;;;;;5075744;28;19994;-62
2022/01/27 12:47:30;;;;;;;;;;;25.00;90.10;;;;;;5075989;28;20354;-59
2022/01/27 12:50:06;;;;;;;;;;;25.00;90.00;;;;;;5075458;28;19977;-61
2022/01/27 12:52:43;;;;;;;;;;;25.00;90.10;;;;;;5075893;28;20371;-57
2022/01/27 12:55:16;;;;;;;;;;;24.90;90.10;;;;;;5075706;28;19908;-58
2022/01/27 12:57:43;;;;;;;;;;;24.90;90.10;;;;;;5074288;28;20272;-63
2022/01/27 13:00:12;;;;;;;;;;;24.90;90.10;;;;;;5075609;28;20363;-61
2022/01/27 13:02:39;;;;;;;;;;;24.90;90.20;;;;;;5075737;28;19987;-60
2022/01/27 13:05:07;;;;;;;;;;;24.90;90.20;;;;;;5075455;28;19905;-62
2022/01/27 13:07:38;;;;;;;;;;;24.90;90.20;;;;;;5075682;28;19958;-60
2022/01/27 13:10:12;;;;;;;;;;;24.90;90.20;;;;;;5075273;28;19904;-59
2022/01/27 13:12:48;;;;;;;;;;;24.90;90.20;;;;;;5075302;28;19912;-59
2022/01/27 13:15:20;;;;;;;;;;;24.90;90.30;;;;;;5075775;28;19905;-57
2022/01/27 13:17:51;;;;;;;;;;;24.90;90.30;;;;;;5076017;28;20249;-64
2022/01/27 13:20:46;;;;;;;;;;;24.90;90.30;;;;;;5075234;28;20013;-61
2022/01/27 13:25:48;;;;;;;;;;;24.90;90.40;;;;;;5075091;28;20343;-60
2022/01/27 13:28:20;;;;;;;;;;;24.90;90.30;;;;;;5074579;28;20392;-61
2022/01/27 13:30:49;;;;;;;;;;;24.90;90.30;;;;;;5075165;28;20232;-62
2022/01/27 13:33:17;;;;;;;;;;;24.90;90.30;;;;;;5074660;28;19912;-61
2022/01/27 13:35:44;;;;;;;;;;;24.90;90.40;;;;;;5074813;28;19916;-61
2022/01/27 13:39:01;;;;;;;;;;;24.90;90.40;;;;;;5074482;28;20281;-61
2022/01/27 13:44:02;;;;;;;;;;;24.90;90.40;;;;;;5075170;28;20353;-61
2022/01/27 13:46:46;;;;;;;;;;;24.90;90.40;;;;;;5074837;28;19904;-61
2022/01/27 13:49:14;;;;;;;;;;;24.90;90.40;;;;;;5074577;28;20184;-62
2022/01/27 13:51:48;;;;;;;;;;;24.90;90.50;;;;;;5074914;28;19911;-60
2022/01/27 13:54:14;;;;;;;;;;;24.90;90.50;;;;;;5074317;28;19934;-59
2022/01/27 13:56:46;;;;;;;;;;;24.90;90.40;;;;;;5074433;28;19961;-60
2022/01/27 13:59:19;;;;;;;;;;;24.90;90.50;;;;;;5074852;28;20342;-58
2022/01/27 14:01:46;;;;;;;;;;;24.90;90.50;;;;;;5074549;28;20343;-58
2022/01/27 14:04:13;;;;;;;;;;;24.90;90.50;;;;;;5074371;28;19930;-62
2022/01/27 14:06:50;;;;;;;;;;;24.90;90.50;;;;;;5074828;28;19904;-58
2022/01/27 14:09:17;;;;;;;;;;;24.90;90.60;;;;;;5074611;28;19989;-58
2022/01/27 14:11:44;;;;;;;;;;;24.90;90.60;;;;;;5074563;28;19912;-61
2022/01/27 14:14:11;;;;;;;;;;;24.90;90.60;;;;;;5073908;28;20362;-60
2022/01/27 14:16:38;;;;;;;;;;;24.80;90.60;;;;;;5074650;28;19912;-61
2022/01/27 14:19:12;;;;;;;;;;;24.90;90.60;;;;;;5074670;28;19904;-58
2022/01/27 14:21:45;;;;;;;;;;;24.80;90.60;;;;;;5074314;28;20243;-61
2022/01/27 14:24:19;;;;;;;;;;;24.80;90.60;;;;;;5072673;28;19914;-60
2022/01/27 14:26:59;;;;;;;;;;;24.80;90.60;;;;;;5073954;28;20014;-61
2022/01/27 14:29:25;;;;;;;;;;;24.80;90.60;;;;;;5073984;28;19911;-60
2022/01/27 14:31:52;;;;;;;;;;;24.90;90.60;;;;;;5073696;28;19997;-60
2022/01/27 14:34:33;;;;;;;;;;;24.80;90.60;;;;;;5073637;28;20269;-61
2022/01/27 14:37:00;;;;;;;;;;;24.80;90.50;;;;;;5073687;28;19912;-60
2022/01/27 14:39:27;;;;;;;;;;;24.80;90.60;;;;;;5073620;28;19912;-61
2022/01/27 14:41:54;;;;;;;;;;;24.80;90.60;;;;;;5073193;28;20354;-60
2022/01/27 14:44:23;;;;;;;;;;;24.80;90.70;;;;;;5073623;28;19911;-60
2022/01/27 14:46:52;;;;;;;;;;;24.80;90.70;;;;;;5073559;28;19904;-60
2022/01/27 14:49:19;;;;;;;;;;;24.80;90.60;;;;;;5072062;28;20278;-60
2022/01/27 14:51:46;;;;;;;;;;;24.80;90.60;;;;;;5073570;28;20358;-61
2022/01/27 14:54:13;;;;;;;;;;;24.80;90.70;;;;;;5073672;28;20007;-59
2022/01/27 14:56:44;;;;;;;;;;;24.80;90.70;;;;;;5073020;28;19916;-61
2022/01/27 14:59:10;;;;;;;;;;;24.70;90.70;;;;;;5073385;28;19904;-56
2022/01/27 15:01:37;;;;;;;;;;;24.70;90.70;;;;;;5072950;28;19915;-60
2022/01/27 15:04:04;;;;;;;;;;;24.80;90.70;;;;;;5072991;28;20280;-61
2022/01/27 15:06:32;;;;;;;;;;;24.70;90.70;;;;;;5073188;28;19962;-59
2022/01/27 15:08:59;;;;;;;;;;;24.70;90.70;;;;;;5073341;28;20256;-57
2022/01/27 15:11:25;;;;;;;;;;;24.70;90.80;;;;;;5073331;28;19904;-61
2022/01/27 15:18:48;;;;;;;;;;;24.70;90.80;;;;;;5071977;28;20395;-60
2022/01/27 15:21:54;;;;;;;;;;;24.70;90.80;;;;;;5072943;28;19999;-62
2022/01/27 15:24:21;;;;;;;;;;;24.70;90.90;;;;;;5073390;28;20375;-58
2022/01/27 15:26:53;;;;;;;;;;;24.70;90.80;;;;;;5072313;28;19909;-56